Tokyo, Tokyo Narita International Airport (RJAA)

NameTokyo Narita International Airport
CityTokyo
CountryJapan
ICAORJAA
IATANRT
Altitude135 feet
CoordinatesGoogle Map
Live Air TrafficLiveATC.net
METARRJAA 230830Z 13007KT 9999 FEW030 SCT180 32/26 Q1005 NOSIG
2024-07-23 08:30:00 Wind: East-Southeast (130°) 3.6 m/s - Visibility: > 10000 m - Temperature: 32 °C - Dew point: 26 °C - Humidity: 70.6% - Pressure: 1005 hPa

Sorry, no flights used the airport in this database.